createdAt,value
2019-05-20T00:00:00.358Z,12.58
2019-05-20T00:02:32.505Z,12.64
2019-05-20T00:05:05.362Z,12.54
2019-05-20T00:07:37.868Z,12.60
2019-05-20T00:10:14.333Z,12.60
2019-05-20T00:12:47.272Z,12.57
2019-05-20T00:15:20.033Z,12.58
2019-05-20T00:17:52.435Z,12.51
2019-05-20T00:20:24.810Z,12.52
2019-05-20T00:22:58.961Z,12.54
2019-05-20T00:25:32.242Z,12.54
2019-05-20T00:28:03.618Z,12.49
2019-05-20T00:30:36.767Z,12.51
2019-05-20T00:33:09.375Z,12.58
2019-05-20T00:35:41.836Z,12.54
2019-05-20T00:38:14.471Z,12.65
2019-05-20T00:40:46.892Z,12.67
2019-05-20T00:43:19.915Z,12.75
2019-05-20T00:45:51.006Z,12.75
2019-05-20T00:48:23.046Z,12.75
2019-05-20T00:50:56.135Z,12.72
2019-05-20T00:53:27.619Z,12.77
2019-05-20T00:56:00.127Z,12.81
2019-05-20T00:58:32.662Z,12.79
2019-05-20T01:01:05.148Z,12.84
2019-05-20T01:03:37.459Z,12.81
2019-05-20T01:06:09.913Z,12.76
2019-05-20T01:08:42.336Z,12.84
2019-05-20T01:11:14.560Z,12.87
2019-05-20T01:13:47.151Z,12.84
2019-05-20T01:16:19.507Z,12.79
2019-05-20T01:18:51.679Z,12.76
2019-05-20T01:21:24.035Z,12.80
2019-05-20T01:23:57.007Z,12.83
2019-05-20T01:26:28.843Z,12.84
2019-05-20T01:29:01.780Z,12.80
2019-05-20T01:31:34.213Z,12.78
2019-05-20T01:34:06.304Z,12.80
2019-05-20T01:36:38.696Z,12.78
2019-05-20T01:39:11.505Z,12.87
2019-05-20T01:41:43.520Z,12.89
2019-05-20T01:44:16.309Z,12.90
2019-05-20T01:46:48.644Z,12.90
2019-05-20T01:49:21.452Z,12.88
2019-05-20T01:51:53.860Z,12.95
2019-05-20T01:54:26.211Z,12.92
2019-05-20T01:56:58.776Z,12.91
2019-05-20T01:59:31.543Z,12.89
2019-05-20T02:02:03.953Z,12.83
2019-05-20T02:04:37.081Z,12.84
2019-05-20T02:07:08.283Z,12.81
2019-05-20T02:09:41.029Z,12.77
2019-05-20T02:12:12.074Z,12.74
2019-05-20T02:14:49.856Z,12.79
2019-05-20T02:17:22.545Z,12.79
2019-05-20T02:19:55.435Z,12.78
2019-05-20T02:22:27.571Z,12.81
2019-05-20T02:24:59.761Z,12.74
2019-05-20T02:27:31.787Z,12.79
2019-05-20T02:30:05.030Z,12.75
2019-05-20T02:32:37.527Z,12.69
2019-05-20T02:35:10.609Z,12.64
2019-05-20T02:37:43.678Z,12.66
2019-05-20T02:40:16.284Z,12.62
2019-05-20T02:42:48.384Z,12.66
2019-05-20T02:45:21.403Z,12.63
2019-05-20T02:47:54.445Z,12.62
2019-05-20T02:50:26.968Z,12.61
2019-05-20T02:52:59.336Z,12.58
2019-05-20T02:55:32.327Z,12.50
2019-05-20T02:58:04.764Z,12.46
2019-05-20T03:00:37.169Z,12.41
2019-05-20T03:03:10.503Z,12.34
2019-05-20T03:05:43.299Z,12.33
2019-05-20T03:08:15.749Z,12.29
2019-05-20T03:10:48.368Z,12.24
2019-05-20T03:13:21.289Z,12.25
2019-05-20T03:15:53.854Z,12.26
2019-05-20T03:18:26.581Z,12.22
2019-05-20T03:20:59.840Z,12.20
2019-05-20T03:23:33.021Z,12.19
2019-05-20T03:26:05.342Z,12.24
2019-05-20T03:28:38.436Z,12.18
2019-05-20T03:31:09.566Z,12.08
2019-05-20T03:33:41.580Z,12.12
2019-05-20T03:36:14.526Z,12.13
2019-05-20T03:38:47.356Z,12.02
2019-05-20T03:41:18.487Z,12.08
2019-05-20T03:43:50.254Z,12.12
2019-05-20T03:46:23.020Z,12.09
2019-05-20T03:48:56.042Z,12.12
2019-05-20T03:51:28.971Z,12.13
2019-05-20T03:54:00.054Z,12.19
2019-05-20T03:56:32.271Z,12.18
2019-05-20T03:59:04.909Z,12.13
2019-05-20T04:01:38.086Z,12.20
2019-05-20T04:04:11.083Z,12.23
2019-05-20T04:06:43.777Z,12.30
2019-05-20T04:09:16.456Z,12.34
2019-05-20T04:11:48.878Z,12.33
2019-05-20T04:14:21.407Z,12.36
2019-05-20T04:16:54.578Z,12.38
2019-05-20T04:19:27.354Z,12.44
2019-05-20T04:22:00.536Z,12.44
2019-05-20T04:24:33.704Z,12.44
2019-05-20T04:27:07.257Z,12.59
2019-05-20T04:29:40.411Z,12.60
2019-05-20T04:32:13.200Z,12.65
2019-05-20T04:34:45.287Z,12.67
2019-05-20T04:37:17.608Z,12.77
2019-05-20T04:39:50.430Z,12.83
2019-05-20T04:42:23.194Z,12.86
2019-05-20T04:44:55.353Z,12.95
2019-05-20T04:47:27.316Z,13.07
2019-05-20T04:49:59.394Z,13.17
2019-05-20T04:52:31.973Z,13.30
2019-05-20T04:55:04.423Z,13.37
2019-05-20T04:57:37.391Z,13.31
2019-05-20T05:00:09.906Z,13.37
2019-05-20T05:02:43.838Z,13.38
2019-05-20T05:05:17.754Z,13.32
2019-05-20T05:07:50.802Z,13.32
2019-05-20T05:10:22.934Z,13.33
2019-05-20T05:12:54.839Z,13.32
2019-05-20T05:15:26.727Z,13.36
2019-05-20T05:17:58.938Z,13.31
2019-05-20T05:20:31.221Z,13.37
2019-05-20T05:23:04.075Z,13.44
2019-05-20T05:25:36.107Z,13.36
2019-05-20T05:28:08.765Z,13.48
2019-05-20T05:30:41.710Z,13.58
2019-05-20T05:33:14.234Z,13.50
2019-05-20T05:35:53.367Z,13.57
2019-05-20T05:38:21.109Z,13.65
2019-05-20T05:40:53.746Z,13.73
2019-05-20T05:43:26.170Z,13.78
2019-05-20T05:45:58.868Z,14.03
2019-05-20T05:48:31.765Z,14.15
2019-05-20T05:51:04.839Z,14.32
2019-05-20T05:53:38.225Z,14.46
2019-05-20T05:56:10.307Z,14.40
2019-05-20T05:58:42.485Z,14.53
2019-05-20T06:01:14.629Z,14.56
2019-05-20T06:03:47.091Z,14.64
2019-05-20T06:06:19.821Z,14.65
2019-05-20T06:08:52.162Z,14.70
2019-05-20T06:11:24.989Z,14.84
2019-05-20T06:13:56.850Z,14.91
2019-05-20T06:16:36.424Z,14.86
2019-05-20T06:19:03.288Z,15.24
2019-05-20T06:21:35.451Z,15.28
2019-05-20T06:24:08.001Z,15.28
2019-05-20T06:26:41.451Z,15.06
2019-05-20T06:29:14.020Z,15.24
2019-05-20T06:31:47.169Z,15.27
2019-05-20T06:34:20.357Z,15.23
2019-05-20T06:36:54.573Z,15.36
2019-05-20T06:39:28.200Z,15.42
2019-05-20T06:42:01.755Z,15.65
2019-05-20T06:44:34.393Z,15.77
2019-05-20T06:47:09.297Z,15.66
2019-05-20T06:49:42.404Z,15.67
2019-05-20T06:52:14.576Z,15.81
2019-05-20T06:54:48.095Z,15.75
2019-05-20T06:57:23.941Z,15.93
2019-05-20T06:59:56.087Z,15.84
2019-05-20T07:02:28.262Z,15.92
2019-05-20T07:05:01.284Z,16.12
2019-05-20T07:07:32.802Z,16.27
2019-05-20T07:10:05.019Z,16.59
2019-05-20T07:12:41.257Z,16.81
2019-05-20T07:15:11.953Z,16.66
2019-05-20T07:17:45.642Z,16.67
2019-05-20T07:20:19.233Z,16.93
2019-05-20T07:22:56.138Z,16.99
2019-05-20T07:25:29.143Z,17.07
2019-05-20T07:28:06.637Z,17.35
2019-05-20T07:30:39.500Z,17.57
2019-05-20T07:33:12.056Z,17.62
2019-05-20T07:35:44.866Z,17.87
2019-05-20T07:38:17.507Z,18.00
2019-05-20T07:40:50.291Z,17.82
2019-05-20T07:43:23.083Z,17.91
2019-05-20T07:45:55.819Z,18.32
2019-05-20T07:48:28.108Z,18.16
2019-05-20T07:51:01.979Z,18.20
2019-05-20T07:53:35.418Z,18.36
2019-05-20T07:56:14.852Z,18.36
2019-05-20T07:58:53.215Z,18.01
2019-05-20T08:01:25.704Z,17.90
2019-05-20T08:03:57.884Z,17.66
2019-05-20T08:06:30.011Z,17.67
2019-05-20T08:09:02.253Z,17.86
2019-05-20T08:11:34.799Z,17.92
2019-05-20T08:14:17.134Z,18.01
2019-05-20T08:16:49.377Z,17.87
2019-05-20T08:19:23.153Z,17.89
2019-05-20T08:21:56.545Z,17.85
2019-05-20T08:24:28.624Z,18.13
2019-05-20T08:27:00.738Z,18.23
2019-05-20T08:29:33.061Z,18.18
2019-05-20T08:32:05.832Z,18.35
2019-05-20T08:34:39.220Z,18.54
2019-05-20T08:37:12.894Z,18.46
2019-05-20T08:39:45.944Z,18.09
2019-05-20T08:42:18.936Z,18.19
2019-05-20T08:44:52.305Z,18.02
2019-05-20T08:47:24.630Z,18.24
2019-05-20T08:49:58.267Z,18.01
2019-05-20T08:52:30.336Z,18.33
2019-05-20T08:55:02.855Z,18.13
2019-05-20T08:57:35.292Z,17.74
2019-05-20T09:00:09.423Z,17.80
2019-05-20T09:02:41.796Z,17.84
2019-05-20T09:05:14.940Z,17.84
2019-05-20T09:08:02.525Z,17.79
2019-05-20T09:10:23.908Z,17.74
2019-05-20T09:12:56.387Z,17.83
2019-05-20T09:15:29.210Z,17.70
2019-05-20T09:18:00.208Z,17.64
2019-05-20T09:20:32.314Z,17.61
2019-05-20T09:23:04.742Z,17.50
2019-05-20T09:25:37.550Z,17.45
2019-05-20T09:28:08.807Z,17.43
2019-05-20T09:30:41.271Z,17.22
2019-05-20T09:33:13.961Z,17.08
2019-05-20T09:35:45.878Z,17.04
2019-05-20T09:38:21.137Z,16.87
2019-05-20T09:40:52.465Z,16.92
2019-05-20T09:43:24.868Z,16.90
2019-05-20T09:46:07.564Z,16.90
2019-05-20T09:48:31.457Z,16.93
2019-05-20T09:51:04.213Z,17.02
2019-05-20T09:53:36.916Z,17.12
2019-05-20T09:56:09.741Z,16.94
2019-05-20T09:58:41.878Z,17.20
2019-05-20T10:01:14.269Z,17.45
2019-05-20T10:03:46.986Z,17.46
2019-05-20T10:06:19.799Z,17.21
2019-05-20T10:08:51.922Z,17.36
2019-05-20T10:11:24.383Z,17.25
2019-05-20T10:13:58.201Z,17.28
2019-05-20T10:16:30.665Z,17.23
2019-05-20T10:19:03.606Z,17.26
2019-05-20T10:21:35.186Z,17.41
2019-05-20T10:24:07.633Z,17.43
2019-05-20T10:26:40.105Z,17.34
2019-05-20T10:29:13.119Z,17.51
2019-05-20T10:31:44.158Z,17.44
2019-05-20T10:34:16.596Z,17.63
2019-05-20T10:36:48.965Z,17.20
2019-05-20T10:39:21.652Z,17.16
2019-05-20T10:41:54.883Z,17.15
2019-05-20T10:44:28.317Z,17.19
2019-05-20T10:47:01.118Z,17.67
2019-05-20T10:49:33.142Z,17.70
2019-05-20T10:52:05.792Z,17.97
2019-05-20T10:54:36.577Z,17.86
2019-05-20T10:57:09.171Z,18.09
2019-05-20T10:59:39.954Z,18.03
2019-05-20T11:02:12.579Z,17.80
2019-05-20T11:04:43.362Z,17.91
2019-05-20T11:07:15.413Z,18.12
2019-05-20T11:09:47.958Z,18.19
2019-05-20T11:12:20.533Z,18.51
2019-05-20T11:14:53.229Z,18.10
2019-05-20T11:17:25.646Z,18.49
2019-05-20T11:19:58.449Z,18.27
2019-05-20T11:22:29.570Z,18.71
2019-05-20T11:25:01.741Z,18.91
2019-05-20T11:27:34.796Z,18.88
2019-05-20T11:30:08.623Z,19.14
2019-05-20T11:32:41.283Z,19.11
2019-05-20T11:35:14.693Z,19.08
2019-05-20T11:37:50.750Z,18.80
2019-05-20T11:40:23.653Z,18.83
2019-05-20T11:42:54.469Z,19.16
2019-05-20T11:45:26.455Z,19.16
2019-05-20T11:47:59.556Z,19.32
2019-05-20T11:50:32.038Z,19.26
2019-05-20T11:53:05.014Z,19.83
2019-05-20T11:55:37.131Z,20.10
2019-05-20T11:58:15.967Z,19.74
2019-05-20T12:00:43.868Z,19.53
2019-05-20T12:03:16.276Z,19.38
2019-05-20T12:05:50.461Z,19.16
2019-05-20T12:08:23.046Z,19.05
2019-05-20T12:10:57.444Z,18.93
2019-05-20T12:13:30.571Z,19.07
2019-05-20T12:16:03.320Z,18.95
2019-05-20T12:18:34.415Z,19.02
2019-05-20T12:21:06.741Z,18.95
2019-05-20T12:23:39.862Z,18.90
2019-05-20T12:26:12.291Z,19.09
2019-05-20T12:28:45.075Z,19.11
2019-05-20T12:31:16.279Z,19.14
2019-05-20T12:33:49.042Z,19.01
2019-05-20T12:36:22.272Z,18.85
2019-05-20T12:38:54.827Z,18.83
2019-05-20T12:41:26.976Z,19.07
2019-05-20T12:44:10.986Z,19.20
2019-05-20T12:46:34.451Z,19.45
2019-05-20T12:49:07.268Z,19.61
2019-05-20T12:51:40.219Z,19.65
2019-05-20T12:54:12.225Z,19.47
2019-05-20T12:56:44.493Z,20.01
2019-05-20T12:59:17.097Z,20.17
2019-05-20T13:01:49.780Z,20.59
2019-05-20T13:04:21.287Z,20.87
2019-05-20T13:06:54.925Z,20.71
2019-05-20T13:09:26.988Z,20.55
2019-05-20T13:11:59.451Z,20.40
2019-05-20T13:14:31.534Z,20.09
2019-05-20T13:17:04.796Z,20.07
2019-05-20T13:19:37.089Z,20.20
2019-05-20T13:22:09.734Z,20.06
2019-05-20T13:24:42.194Z,19.93
2019-05-20T13:27:14.507Z,19.90
2019-05-20T13:29:47.376Z,20.10
2019-05-20T13:32:20.125Z,20.06
2019-05-20T13:34:52.730Z,20.11
2019-05-20T13:37:25.090Z,20.29
2019-05-20T13:39:57.537Z,20.41
2019-05-20T13:42:30.128Z,20.06
2019-05-20T13:45:02.513Z,20.24
2019-05-20T13:47:35.393Z,20.03
2019-05-20T13:50:09.222Z,20.25
2019-05-20T13:52:42.207Z,19.87
2019-05-20T13:55:15.181Z,20.19
2019-05-20T13:57:47.491Z,20.24
2019-05-20T14:00:20.417Z,20.61
2019-05-20T14:02:52.804Z,20.45
2019-05-20T14:05:25.469Z,19.99
2019-05-20T14:07:58.202Z,20.12
2019-05-20T14:10:30.009Z,20.48
2019-05-20T14:13:02.688Z,19.99
2019-05-20T14:15:33.532Z,19.84
2019-05-20T14:18:05.611Z,19.69
2019-05-20T14:20:38.014Z,19.53
2019-05-20T14:23:11.007Z,19.40
2019-05-20T14:25:43.705Z,19.45
2019-05-20T14:28:15.856Z,19.27
2019-05-20T14:30:48.587Z,18.94
2019-05-20T14:33:20.246Z,18.44
2019-05-20T14:35:52.013Z,18.44
2019-05-20T14:38:24.108Z,18.29
2019-05-20T14:40:56.627Z,18.06
2019-05-20T14:43:28.752Z,17.50
2019-05-20T14:46:01.726Z,17.40
2019-05-20T14:48:34.556Z,17.51
2019-05-20T14:51:06.793Z,17.08
2019-05-20T14:53:39.576Z,17.14
2019-05-20T14:56:11.972Z,16.93
2019-05-20T14:58:44.864Z,16.92
2019-05-20T15:01:16.302Z,16.83
2019-05-20T15:03:48.279Z,16.71
2019-05-20T15:06:20.356Z,16.64
2019-05-20T15:08:52.692Z,16.57
2019-05-20T15:11:37.560Z,16.63
2019-05-20T15:14:00.306Z,16.45
2019-05-20T15:16:33.109Z,16.49
2019-05-20T15:19:05.234Z,16.47
2019-05-20T15:21:39.291Z,16.34
2019-05-20T15:24:12.419Z,16.27
2019-05-20T15:26:44.290Z,16.13
2019-05-20T15:29:27.484Z,16.14
2019-05-20T15:31:51.490Z,16.11
2019-05-20T15:34:24.332Z,16.02
2019-05-20T15:36:55.115Z,15.81
2019-05-20T15:39:27.417Z,15.60
2019-05-20T15:41:59.906Z,15.57
2019-05-20T15:44:33.014Z,15.55
2019-05-20T15:47:05.466Z,15.48
2019-05-20T15:49:37.842Z,15.34
2019-05-20T15:52:10.621Z,15.30
2019-05-20T15:54:44.439Z,15.33
2019-05-20T15:57:19.618Z,15.29
2019-05-20T15:59:52.388Z,15.22
2019-05-20T16:02:24.786Z,15.13
2019-05-20T16:04:57.999Z,15.13
2019-05-20T16:07:30.758Z,15.02
2019-05-20T16:10:03.865Z,14.88
2019-05-20T16:12:36.624Z,14.75
2019-05-20T16:15:10.239Z,14.66
2019-05-20T16:17:43.139Z,14.55
2019-05-20T16:20:16.785Z,14.53
2019-05-20T16:22:49.880Z,14.43
2019-05-20T16:25:22.813Z,14.33
2019-05-20T16:27:55.913Z,14.27
2019-05-20T16:30:28.112Z,14.24
2019-05-20T16:33:00.226Z,14.21
2019-05-20T16:35:33.490Z,14.15
2019-05-20T16:38:09.663Z,14.16
2019-05-20T16:40:42.520Z,14.11
2019-05-20T16:43:15.873Z,14.06
2019-05-20T16:45:48.985Z,14.03
2019-05-20T16:48:20.772Z,13.98
2019-05-20T16:50:52.958Z,13.94
2019-05-20T16:53:25.185Z,13.91
2019-05-20T16:55:58.339Z,13.89
2019-05-20T16:58:32.356Z,13.88
2019-05-20T17:01:08.759Z,13.88
2019-05-20T17:03:41.508Z,13.86
2019-05-20T17:06:13.984Z,13.84
2019-05-20T17:08:46.795Z,13.81
2019-05-20T17:11:19.084Z,13.74
2019-05-20T17:13:51.397Z,13.77
2019-05-20T17:16:24.246Z,13.72
2019-05-20T17:18:56.317Z,13.67
2019-05-20T17:21:28.694Z,13.66
2019-05-20T17:24:02.265Z,13.63
2019-05-20T17:26:35.026Z,13.61
2019-05-20T17:29:07.461Z,13.56
2019-05-20T17:31:41.983Z,13.60
2019-05-20T17:34:14.771Z,13.55
2019-05-20T17:36:47.352Z,13.53
2019-05-20T17:39:19.822Z,13.55
2019-05-20T17:41:52.557Z,13.55
2019-05-20T17:44:25.651Z,13.53
2019-05-20T17:46:56.966Z,13.45
2019-05-20T17:49:29.050Z,13.41
2019-05-20T17:52:01.782Z,13.47
2019-05-20T17:54:34.644Z,13.40
2019-05-20T17:57:07.718Z,13.33
2019-05-20T17:59:39.126Z,13.35
2019-05-20T18:02:12.871Z,13.32
2019-05-20T18:04:45.274Z,13.31
2019-05-20T18:07:17.308Z,13.24
2019-05-20T18:09:52.208Z,13.29
2019-05-20T18:12:25.455Z,13.25
2019-05-20T18:14:59.980Z,13.23
2019-05-20T18:17:32.014Z,13.17
2019-05-20T18:20:05.253Z,13.14
2019-05-20T18:22:38.690Z,13.14
2019-05-20T18:25:12.693Z,13.17
2019-05-20T18:27:45.993Z,13.18
2019-05-20T18:30:17.478Z,13.12
2019-05-20T18:32:49.407Z,13.05
2019-05-20T18:35:22.145Z,13.08
2019-05-20T18:37:55.198Z,13.07
2019-05-20T18:40:26.345Z,13.10
2019-05-20T18:42:59.155Z,13.09
2019-05-20T18:45:32.338Z,13.08
2019-05-20T18:48:04.829Z,13.03
2019-05-20T18:50:37.505Z,13.04
2019-05-20T18:53:10.486Z,13.04
2019-05-20T18:55:42.607Z,13.03
2019-05-20T18:58:15.718Z,13.04
2019-05-20T19:00:48.782Z,13.00
2019-05-20T19:03:21.258Z,13.01
2019-05-20T19:05:55.055Z,12.99
2019-05-20T19:08:28.312Z,13.05
2019-05-20T19:10:59.638Z,13.04
2019-05-20T19:13:32.075Z,13.00
2019-05-20T19:16:05.133Z,13.02
2019-05-20T19:18:35.967Z,13.00
2019-05-20T19:21:09.332Z,12.97
2019-05-20T19:23:42.411Z,12.95
2019-05-20T19:26:24.387Z,12.96
2019-05-20T19:28:49.170Z,13.00
2019-05-20T19:31:22.722Z,12.96
2019-05-20T19:33:55.601Z,12.98
2019-05-20T19:36:28.133Z,12.99
2019-05-20T19:39:01.470Z,12.96
2019-05-20T19:41:34.650Z,12.97
2019-05-20T19:44:06.894Z,12.98
2019-05-20T19:46:40.033Z,12.99
2019-05-20T19:49:13.857Z,12.99
2019-05-20T19:51:46.551Z,13.02
2019-05-20T19:54:18.602Z,12.99
2019-05-20T19:56:51.952Z,13.00
2019-05-20T19:59:23.417Z,13.02
2019-05-20T20:01:56.106Z,12.99
2019-05-20T20:04:27.149Z,12.97
2019-05-20T20:07:00.748Z,13.02
2019-05-20T20:09:33.968Z,13.01
2019-05-20T20:12:06.392Z,13.00
2019-05-20T20:14:38.707Z,13.01
2019-05-20T20:17:11.745Z,13.01
2019-05-20T20:19:43.243Z,13.01
2019-05-20T20:22:15.193Z,13.00
2019-05-20T20:24:48.051Z,13.03
2019-05-20T20:27:20.879Z,13.02
2019-05-20T20:29:53.665Z,13.06
2019-05-20T20:32:37.497Z,13.05
2019-05-20T20:35:01.906Z,13.04
2019-05-20T20:37:34.451Z,13.05
2019-05-20T20:40:06.856Z,13.07
2019-05-20T20:42:40.488Z,13.07
2019-05-20T20:45:14.048Z,13.11
2019-05-20T20:47:46.973Z,13.08
2019-05-20T20:50:19.303Z,13.13
2019-05-20T20:52:51.686Z,13.14
2019-05-20T20:55:24.048Z,13.21
2019-05-20T20:57:56.127Z,13.18
2019-05-20T21:00:28.842Z,13.19
2019-05-20T21:03:01.288Z,13.17
2019-05-20T21:05:33.750Z,13.23
2019-05-20T21:08:06.436Z,13.20
2019-05-20T21:10:38.452Z,13.21
2019-05-20T21:13:12.039Z,13.21
2019-05-20T21:15:45.113Z,13.21
2019-05-20T21:18:17.523Z,13.24
2019-05-20T21:20:49.754Z,13.21
2019-05-20T21:23:22.482Z,13.14
2019-05-20T21:25:54.866Z,13.21
2019-05-20T21:28:27.787Z,13.22
2019-05-20T21:31:00.326Z,13.22
2019-05-20T21:33:32.885Z,13.22
2019-05-20T21:36:06.017Z,13.20
2019-05-20T21:38:37.449Z,13.21
2019-05-20T21:41:09.198Z,13.24
2019-05-20T21:43:41.348Z,13.25
2019-05-20T21:46:14.597Z,13.26
2019-05-20T21:48:46.875Z,13.27
2019-05-20T21:51:19.452Z,13.24
2019-05-20T21:53:51.539Z,13.24
2019-05-20T21:56:24.221Z,13.24
2019-05-20T21:58:56.902Z,13.25
2019-05-20T22:01:29.238Z,13.24
2019-05-20T22:04:01.967Z,13.23
2019-05-20T22:06:34.166Z,13.22
2019-05-20T22:09:07.443Z,13.24
2019-05-20T22:11:40.203Z,13.26
2019-05-20T22:14:12.593Z,13.27
2019-05-20T22:16:45.070Z,13.26
2019-05-20T22:19:17.406Z,13.27
2019-05-20T22:22:08.832Z,13.26
2019-05-20T22:24:41.530Z,13.25
2019-05-20T22:27:14.855Z,13.26
2019-05-20T22:29:48.285Z,13.29
2019-05-20T22:32:21.619Z,13.27
2019-05-20T22:34:53.984Z,13.25
2019-05-20T22:37:26.279Z,13.29
2019-05-20T22:39:58.760Z,13.30
2019-05-20T22:42:31.560Z,13.29
2019-05-20T22:45:04.135Z,13.27
2019-05-20T22:47:37.113Z,13.29
2019-05-20T22:50:09.674Z,13.31
2019-05-20T22:52:42.421Z,13.25
2019-05-20T22:55:14.831Z,13.28
2019-05-20T22:57:46.923Z,13.28
2019-05-20T23:00:19.907Z,13.32
2019-05-20T23:02:52.709Z,13.31
2019-05-20T23:05:25.721Z,13.33
2019-05-20T23:07:57.030Z,13.36
2019-05-20T23:10:29.057Z,13.35
2019-05-20T23:13:02.203Z,13.32
2019-05-20T23:15:33.614Z,13.29
2019-05-20T23:18:06.593Z,13.33
2019-05-20T23:20:39.467Z,13.32
2019-05-20T23:23:12.156Z,13.36
2019-05-20T23:25:45.023Z,13.33
2019-05-20T23:28:17.338Z,13.32
2019-05-20T23:30:50.679Z,13.34
2019-05-20T23:33:23.635Z,13.35
2019-05-20T23:35:56.237Z,13.33
2019-05-20T23:38:29.296Z,13.31
2019-05-20T23:41:00.723Z,13.30
2019-05-20T23:43:33.177Z,13.30
2019-05-20T23:46:05.507Z,13.30
2019-05-20T23:48:38.187Z,13.31
2019-05-20T23:51:10.671Z,13.30
2019-05-20T23:53:43.340Z,13.30
2019-05-20T23:56:16.050Z,13.29
2019-05-20T23:58:48.527Z,13.27
